Time;durP1;ratioP1;P1;durP2;ratioP2;P2;SDS_P1;SDS_P2;PMS_P1;PMS_P2;Temp;Humidity;BMP_temperature;BMP_pressure;BME280_temperature;BME280_humidity;BME280_pressure;Samples;Min_cycle;Max_cycle;Signal;HPM_P1;HPM_P2
2021/03/07 00:00:08;;;;;;;17.27;10.97;;;3.60;99.90;;;;;;5018023;27;118724;-62
2021/03/07 00:02:35;;;;;;;12.40;11.10;;;3.60;99.90;;;;;;5018695;27;118669;-62
2021/03/07 00:05:01;;;;;;;11.37;8.10;;;3.40;99.90;;;;;;5022570;27;118236;-63
2021/03/07 00:07:27;;;;;;;11.13;7.30;;;3.70;99.90;;;;;;5021338;27;120239;-63
2021/03/07 00:09:53;;;;;;;11.07;7.50;;;4.10;99.90;;;;;;5021601;27;118962;-63
2021/03/07 00:12:20;;;;;;;25.87;13.63;;;3.60;99.90;;;;;;5022644;27;118433;-63
2021/03/07 00:14:46;;;;;;;11.33;8.30;;;3.70;99.90;;;;;;5021890;27;118087;-62
2021/03/07 00:17:13;;;;;;;17.17;11.17;;;3.60;99.90;;;;;;5021404;27;118504;-62
2021/03/07 00:19:39;;;;;;;11.90;8.23;;;3.60;99.90;;;;;;5021501;27;118366;-62
2021/03/07 00:22:05;;;;;;;15.63;9.70;;;4.60;99.90;;;;;;5022345;27;118434;-62
2021/03/07 00:24:32;;;;;;;10.40;7.23;;;3.70;99.90;;;;;;5022217;27;118109;-63
2021/03/07 00:26:58;;;;;;;11.73;7.67;;;3.60;99.90;;;;;;5020745;27;118929;-62
2021/03/07 00:29:24;;;;;;;14.37;10.33;;;3.40;99.90;;;;;;5021734;27;118493;-62
2021/03/07 00:31:50;;;;;;;11.93;8.10;;;3.50;99.90;;;;;;5022004;27;118422;-62
2021/03/07 00:34:17;;;;;;;20.53;12.53;;;3.70;99.90;;;;;;5022793;27;118098;-62
2021/03/07 00:36:44;;;;;;;9.53;7.50;;;3.50;99.90;;;;;;5020249;27;119091;-62
2021/03/07 00:39:10;;;;;;;10.43;7.90;;;3.70;99.90;;;;;;5021098;27;118709;-63
2021/03/07 00:41:36;;;;;;;10.80;8.37;;;3.60;99.90;;;;;;5021991;27;118513;-62
2021/03/07 00:44:05;;;;;;;17.30;13.13;;;3.50;99.90;;;;;;5022279;27;118362;-63
2021/03/07 00:46:31;;;;;;;13.53;10.13;;;3.70;99.90;;;;;;5020430;27;119754;-62
2021/03/07 00:48:58;;;;;;;14.63;11.17;;;3.50;99.90;;;;;;5020894;27;118733;-62
2021/03/07 00:51:25;;;;;;;11.40;8.13;;;3.50;99.90;;;;;;5021677;27;119402;-63
2021/03/07 00:53:51;;;;;;;19.20;12.87;;;3.70;99.90;;;;;;5022266;27;118461;-62
2021/03/07 00:56:17;;;;;;;15.97;11.97;;;3.60;99.90;;;;;;5020203;27;119237;-62
2021/03/07 00:58:44;;;;;;;15.70;12.70;;;3.70;99.90;;;;;;5020434;27;119386;-62
2021/03/07 01:01:10;;;;;;;15.53;10.93;;;3.50;99.90;;;;;;5021456;27;118311;-62
2021/03/07 01:03:36;;;;;;;9.90;8.60;;;3.40;99.90;;;;;;5021408;27;118175;-61
2021/03/07 01:06:03;;;;;;;10.63;8.03;;;3.60;99.90;;;;;;5020203;27;120339;-62
2021/03/07 01:08:30;;;;;;;11.53;7.60;;;3.70;99.90;;;;;;5020973;27;119414;-62
2021/03/07 01:10:56;;;;;;;9.60;7.70;;;3.60;99.90;;;;;;5021959;27;118316;-62
2021/03/07 01:13:24;;;;;;;10.00;7.93;;;3.60;99.90;;;;;;5021758;27;119130;-63
2021/03/07 01:15:50;;;;;;;11.20;8.90;;;3.60;99.90;;;;;;5020037;27;118737;-62
2021/03/07 01:18:17;;;;;;;13.17;8.37;;;3.60;99.90;;;;;;5020533;27;119017;-61
2021/03/07 01:20:44;;;;;;;10.77;7.90;;;3.50;99.90;;;;;;5021225;27;118059;-62
2021/03/07 01:23:12;;;;;;;9.77;7.93;;;3.70;99.90;;;;;;5021943;27;118685;-62
2021/03/07 01:25:40;;;;;;;12.17;7.40;;;3.70;99.90;;;;;;5020101;27;119515;-62
2021/03/07 01:28:07;;;;;;;10.53;7.70;;;3.70;99.90;;;;;;5020393;27;118494;-62
2021/03/07 01:30:35;;;;;;;9.00;7.50;;;3.60;99.90;;;;;;5021001;27;118487;-62
2021/03/07 01:33:02;;;;;;;9.70;7.77;;;3.80;99.90;;;;;;5002417;27;118416;-62
2021/03/07 01:35:28;;;;;;;9.77;7.60;;;3.80;99.90;;;;;;5019636;27;119210;-61
2021/03/07 01:37:54;;;;;;;11.40;7.20;;;3.70;99.90;;;;;;5020223;27;119459;-63
2021/03/07 01:40:24;;;;;;;12.13;8.33;;;3.80;99.90;;;;;;5020643;27;118465;-64
2021/03/07 01:42:53;;;;;;;11.13;8.17;;;3.60;99.90;;;;;;5020692;27;118389;-61
2021/03/07 01:45:21;;;;;;;12.23;8.00;;;4.90;99.90;;;;;;5020518;27;119142;-63
2021/03/07 01:47:48;;;;;;;11.20;8.27;;;3.80;99.90;;;;;;5019876;27;119017;-63
2021/03/07 01:50:17;;;;;;;9.23;7.87;;;3.50;99.90;;;;;;5021856;27;118184;-63
2021/03/07 01:52:43;;;;;;;11.37;7.60;;;3.80;99.90;;;;;;5021144;27;118453;-62
2021/03/07 01:55:10;;;;;;;10.13;8.10;;;3.60;99.90;;;;;;5020308;27;118689;-62
2021/03/07 01:57:38;;;;;;;13.17;8.60;;;3.60;99.90;;;;;;5020590;27;118546;-62
2021/03/07 02:00:08;;;;;;;11.97;8.07;;;3.80;99.90;;;;;;5021171;27;118093;-63
2021/03/07 02:02:38;;;;;;;11.20;8.40;;;3.80;99.90;;;;;;5017874;27;118569;-62
2021/03/07 02:05:07;;;;;;;11.60;7.90;;;3.70;99.90;;;;;;5019145;27;118884;-63
2021/03/07 02:07:33;;;;;;;10.30;8.07;;;3.80;99.90;;;;;;5019173;27;119708;-62
2021/03/07 02:10:00;;;;;;;11.37;8.57;;;3.80;99.90;;;;;;5020708;27;118153;-62
2021/03/07 02:12:26;;;;;;;10.90;7.97;;;3.60;99.90;;;;;;5020877;27;118412;-62
2021/03/07 02:14:54;;;;;;;10.30;7.87;;;3.70;99.90;;;;;;5019602;27;119195;-62
2021/03/07 02:17:21;;;;;;;9.97;7.73;;;3.70;99.90;;;;;;5019729;27;118537;-62
2021/03/07 02:19:49;;;;;;;9.03;7.87;;;3.60;99.90;;;;;;5021289;27;118400;-61
2021/03/07 02:22:21;;;;;;;10.33;7.80;;;3.70;99.90;;;;;;5021621;27;118200;-62
2021/03/07 02:24:48;;;;;;;11.17;7.90;;;3.70;99.90;;;;;;5019598;27;118528;-62
2021/03/07 02:27:15;;;;;;;10.30;7.90;;;3.70;99.90;;;;;;5018006;27;119837;-62
2021/03/07 02:29:41;;;;;;;8.97;6.90;;;3.70;99.90;;;;;;5019864;27;118333;-62
2021/03/07 02:32:19;;;;;;;8.60;7.10;;;3.60;99.90;;;;;;5020858;27;118430;-62
2021/03/07 02:34:49;;;;;;;9.40;7.30;;;3.50;99.90;;;;;;5019818;27;119204;-62
2021/03/07 02:37:16;;;;;;;9.33;6.50;;;3.70;99.90;;;;;;5019410;27;118846;-62
2021/03/07 02:39:44;;;;;;;9.70;7.57;;;3.50;99.90;;;;;;5020582;27;118436;-63
2021/03/07 02:42:14;;;;;;;7.93;6.20;;;3.40;99.90;;;;;;5020366;27;118064;-62
2021/03/07 02:44:44;;;;;;;8.40;7.23;;;3.40;99.90;;;;;;5019166;27;118822;-62
2021/03/07 02:47:12;;;;;;;8.43;6.40;;;3.40;99.90;;;;;;5019362;27;119726;-62
2021/03/07 02:49:40;;;;;;;8.00;6.77;;;3.30;99.90;;;;;;5020148;27;118267;-63
2021/03/07 02:52:08;;;;;;;8.13;6.33;;;3.40;99.90;;;;;;5019567;27;118711;-60
2021/03/07 02:54:36;;;;;;;7.73;6.17;;;4.00;99.90;;;;;;5017923;27;118916;-63
2021/03/07 02:57:04;;;;;;;7.47;5.97;;;3.20;99.90;;;;;;5018300;27;118724;-62
2021/03/07 02:59:32;;;;;;;10.00;6.63;;;3.30;99.90;;;;;;5019726;27;118475;-62
2021/03/07 03:02:01;;;;;;;7.23;6.17;;;3.30;99.90;;;;;;5020434;27;118223;-61
2021/03/07 03:04:30;;;;;;;6.93;6.00;;;3.30;99.90;;;;;;5018851;27;118987;-62
2021/03/07 03:06:58;;;;;;;8.23;6.77;;;3.20;99.90;;;;;;5018943;27;119290;-61
2021/03/07 03:09:27;;;;;;;5.80;5.20;;;3.30;99.90;;;;;;5020515;27;118297;-63
2021/03/07 03:11:57;;;;;;;6.90;5.60;;;3.30;99.90;;;;;;5019790;27;118364;-62
2021/03/07 03:14:24;;;;;;;8.13;6.27;;;3.20;99.90;;;;;;5019130;27;119415;-62
2021/03/07 03:16:57;;;;;;;9.70;6.37;;;3.20;99.90;;;;;;5019203;27;118785;-62
2021/03/07 03:19:26;;;;;;;7.53;5.63;;;3.30;99.90;;;;;;5019933;27;118348;-63
2021/03/07 03:21:53;;;;;;;8.67;6.07;;;3.20;99.90;;;;;;5019960;27;118401;-63
2021/03/07 03:24:20;;;;;;;7.40;5.80;;;3.80;99.90;;;;;;5020208;27;119413;-63
2021/03/07 03:26:46;;;;;;;7.60;6.10;;;3.30;99.90;;;;;;5018158;27;118792;-62
2021/03/07 03:29:13;;;;;;;8.57;6.57;;;3.30;99.90;;;;;;5019542;27;118174;-63
2021/03/07 03:31:39;;;;;;;10.90;6.93;;;3.30;99.90;;;;;;5019527;27;118473;-62
2021/03/07 03:34:08;;;;;;;10.60;7.40;;;3.30;99.90;;;;;;5018464;27;119701;-62
2021/03/07 03:36:36;;;;;;;9.10;6.70;;;3.20;99.90;;;;;;5018403;27;119036;-62
2021/03/07 03:39:08;;;;;;;9.37;7.10;;;3.30;99.90;;;;;;5019030;27;118031;-63
2021/03/07 03:41:36;;;;;;;10.93;6.90;;;3.20;99.90;;;;;;5018874;27;118061;-63
2021/03/07 03:44:06;;;;;;;11.23;7.47;;;3.30;99.90;;;;;;5018156;27;118880;-62
2021/03/07 03:46:37;;;;;;;8.80;7.13;;;3.10;99.90;;;;;;5017491;27;119456;-63
2021/03/07 03:49:09;;;;;;;10.60;7.90;;;3.20;99.90;;;;;;5019578;27;118441;-63
2021/03/07 03:51:39;;;;;;;13.87;8.57;;;3.10;99.90;;;;;;5018749;27;118267;-62
2021/03/07 03:54:07;;;;;;;11.87;8.10;;;3.10;99.90;;;;;;5018064;27;119313;-63
2021/03/07 03:56:34;;;;;;;12.90;8.30;;;3.10;99.90;;;;;;5017757;27;118597;-61
2021/03/07 03:59:02;;;;;;;12.40;8.40;;;3.20;99.90;;;;;;5019425;27;118295;-62
2021/03/07 04:01:30;;;;;;;10.80;7.73;;;3.30;99.90;;;;;;5019357;27;118241;-63
2021/03/07 04:03:58;;;;;;;9.37;7.63;;;3.20;99.90;;;;;;5018360;27;119628;-63
2021/03/07 04:06:27;;;;;;;12.80;8.80;;;2.50;99.90;;;;;;5017983;27;119500;-63
2021/03/07 04:08:54;;;;;;;13.30;8.63;;;3.10;99.90;;;;;;5019179;27;118422;-63
2021/03/07 04:11:21;;;;;;;12.87;8.63;;;3.20;99.90;;;;;;5018706;27;118208;-62
2021/03/07 04:13:47;;;;;;;11.80;8.10;;;3.20;99.90;;;;;;5018131;27;118838;-62
2021/03/07 04:16:15;;;;;;;17.00;8.33;;;3.20;99.90;;;;;;5017540;27;118699;-62
2021/03/07 04:18:42;;;;;;;13.17;9.07;;;3.20;99.90;;;;;;5019227;27;118591;-63
2021/03/07 04:21:09;;;;;;;10.87;8.20;;;3.20;99.90;;;;;;5018886;27;118469;-62
2021/03/07 04:23:36;;;;;;;14.17;8.10;;;3.20;99.90;;;;;;5018115;27;118973;-63
2021/03/07 04:26:03;;;;;;;12.03;8.20;;;3.10;99.90;;;;;;5018408;27;119191;-63
2021/03/07 04:28:29;;;;;;;12.97;8.83;;;3.00;99.90;;;;;;5018473;27;118314;-62
2021/03/07 04:30:57;;;;;;;11.93;8.83;;;2.90;99.90;;;;;;5019305;27;118434;-62
2021/03/07 04:33:23;;;;;;;12.87;8.77;;;3.10;99.90;;;;;;5017255;27;118856;-61
2021/03/07 04:35:50;;;;;;;10.77;8.30;;;2.90;99.90;;;;;;4997579;27;118755;-62
2021/03/07 04:38:16;;;;;;;10.87;8.80;;;3.00;99.90;;;;;;5009468;27;118587;-61
2021/03/07 04:40:43;;;;;;;13.43;8.30;;;3.00;99.90;;;;;;5018392;27;118248;-62
2021/03/07 04:43:10;;;;;;;14.07;8.40;;;2.90;99.90;;;;;;5017460;27;119263;-63
2021/03/07 04:45:36;;;;;;;10.00;8.30;;;3.10;99.90;;;;;;5017924;27;118171;-62
2021/03/07 04:48:04;;;;;;;12.13;9.00;;;3.00;99.90;;;;;;5018218;27;118554;-63
2021/03/07 04:50:30;;;;;;;11.40;8.37;;;3.10;99.90;;;;;;5022175;27;118371;-63
2021/03/07 04:52:56;;;;;;;12.47;8.97;;;3.00;99.90;;;;;;5020971;27;119637;-62
2021/03/07 04:55:22;;;;;;;10.87;8.47;;;3.10;99.90;;;;;;5020438;27;118913;-62
2021/03/07 04:57:49;;;;;;;9.67;8.60;;;3.00;99.90;;;;;;5022130;27;118293;-62
2021/03/07 05:00:17;;;;;;;15.07;8.23;;;2.60;99.90;;;;;;5022036;27;118078;-62
2021/03/07 05:02:44;;;;;;;10.03;7.80;;;3.00;99.90;;;;;;5021032;27;118830;-63
2021/03/07 05:05:11;;;;;;;12.37;9.13;;;3.10;99.90;;;;;;5020574;27;119239;-62
2021/03/07 05:07:37;;;;;;;10.33;7.80;;;3.00;99.90;;;;;;5021987;27;118325;-62
2021/03/07 05:10:05;;;;;;;9.43;7.73;;;3.00;99.90;;;;;;5021857;27;118222;-62
2021/03/07 05:12:32;;;;;;;9.73;8.07;;;3.10;99.90;;;;;;5020252;27;118687;-63
2021/03/07 05:14:59;;;;;;;11.23;8.17;;;2.90;99.90;;;;;;5020730;27;119384;-61
2021/03/07 05:17:27;;;;;;;10.40;8.17;;;2.90;99.90;;;;;;5021237;27;118519;-61
2021/03/07 05:19:53;;;;;;;12.80;7.87;;;3.00;99.90;;;;;;5021440;27;118514;-62
2021/03/07 05:22:19;;;;;;;11.53;8.37;;;3.00;99.90;;;;;;5019806;27;118719;-62
2021/03/07 05:24:46;;;;;;;10.90;7.90;;;2.80;99.90;;;;;;5020169;27;118335;-62
2021/03/07 05:27:12;;;;;;;11.73;7.83;;;3.00;99.90;;;;;;5021235;27;118278;-62
2021/03/07 05:29:38;;;;;;;8.27;7.37;;;2.90;99.90;;;;;;5021284;27;118315;-63
2021/03/07 05:32:06;;;;;;;10.03;7.73;;;2.90;99.90;;;;;;5020495;27;119702;-63
2021/03/07 05:34:33;;;;;;;9.77;7.67;;;3.00;99.90;;;;;;5020798;27;118708;-64
2021/03/07 05:36:59;;;;;;;12.43;7.40;;;3.10;99.90;;;;;;5021638;27;118709;-63
2021/03/07 05:39:26;;;;;;;8.77;7.40;;;2.80;99.90;;;;;;5022417;27;118116;-62
2021/03/07 05:41:53;;;;;;;11.07;7.90;;;2.90;99.90;;;;;;5020355;27;119210;-62
2021/03/07 05:44:20;;;;;;;10.80;7.67;;;2.90;99.90;;;;;;5020458;27;118495;-63
2021/03/07 05:46:46;;;;;;;9.53;7.83;;;2.90;99.90;;;;;;5020727;27;118404;-63
2021/03/07 05:49:13;;;;;;;9.77;8.00;;;3.10;99.90;;;;;;5021576;27;118301;-62
2021/03/07 05:51:43;;;;;;;9.97;8.00;;;2.90;99.90;;;;;;5019994;27;118731;-62
2021/03/07 05:54:15;;;;;;;9.40;7.27;;;2.90;99.90;;;;;;5019990;27;119318;-62
2021/03/07 05:56:42;;;;;;;9.17;7.63;;;3.00;99.90;;;;;;5020730;27;118433;-62
2021/03/07 05:59:08;;;;;;;9.90;7.10;;;2.90;99.90;;;;;;5020919;27;118164;-62
2021/03/07 06:01:35;;;;;;;9.53;7.43;;;2.90;99.90;;;;;;5019780;27;118941;-62
2021/03/07 06:04:03;;;;;;;8.97;7.20;;;2.80;99.90;;;;;;5020822;27;118624;-63
2021/03/07 06:06:30;;;;;;;9.03;7.20;;;2.90;99.90;;;;;;5020604;27;118379;-62
2021/03/07 06:09:17;;;;;;;9.43;8.13;;;2.90;99.90;;;;;;5020942;27;118480;-62
2021/03/07 06:11:44;;;;;;;10.57;7.50;;;2.90;99.90;;;;;;5018829;27;119288;-63
2021/03/07 06:14:18;;;;;;;6.77;6.03;;;2.80;99.90;;;;;;5019785;27;118685;-62
2021/03/07 06:17:01;;;;;;;10.13;6.93;;;3.00;99.90;;;;;;5021027;27;118694;-63
2021/03/07 06:19:28;;;;;;;8.13;6.60;;;3.00;99.90;;;;;;5020389;27;117965;-62
2021/03/07 06:21:55;;;;;;;9.90;6.63;;;2.90;99.90;;;;;;5019155;27;119228;-62
2021/03/07 06:24:36;;;;;;;7.90;6.73;;;2.80;99.90;;;;;;5000302;27;121563;-62
2021/03/07 06:27:04;;;;;;;11.73;7.07;;;2.90;99.90;;;;;;5020386;27;118436;-62
2021/03/07 06:29:31;;;;;;;9.00;5.77;;;2.90;99.90;;;;;;5020368;27;118302;-62
2021/03/07 06:31:57;;;;;;;9.83;6.87;;;2.90;99.90;;;;;;5019066;27;120502;-62
2021/03/07 06:34:23;;;;;;;9.80;7.27;;;3.00;99.90;;;;;;5019363;27;118633;-62
2021/03/07 06:37:03;;;;;;;8.03;6.80;;;2.90;99.90;;;;;;5018496;27;118696;-62
2021/03/07 06:39:29;;;;;;;8.50;6.50;;;2.90;99.90;;;;;;4998192;27;118605;-62
2021/03/07 06:42:03;;;;;;;7.80;6.10;;;2.90;99.90;;;;;;5016623;27;118927;-62
2021/03/07 06:44:30;;;;;;;8.17;6.20;;;3.00;99.90;;;;;;5015396;27;119062;-62
2021/03/07 06:47:07;;;;;;;9.47;6.10;;;3.00;99.90;;;;;;5017772;27;118306;-62
2021/03/07 06:49:34;;;;;;;8.80;6.23;;;3.00;99.90;;;;;;5017414;27;118653;-61
2021/03/07 06:52:15;;;;;;;9.70;6.23;;;3.00;99.90;;;;;;5016079;27;118379;-63
2021/03/07 06:54:43;;;;;;;7.97;6.17;;;3.00;99.90;;;;;;5016377;27;118653;-62
2021/03/07 06:57:12;;;;;;;8.33;5.63;;;3.10;99.90;;;;;;5016791;27;118348;-62
2021/03/07 06:59:38;;;;;;;6.73;5.93;;;3.00;99.90;;;;;;5017152;27;118075;-63
2021/03/07 07:02:11;;;;;;;7.53;5.80;;;3.10;99.90;;;;;;5015644;27;118948;-63
2021/03/07 07:04:44;;;;;;;9.47;6.80;;;3.10;99.90;;;;;;5015634;27;119075;-62
2021/03/07 07:07:13;;;;;;;6.40;5.63;;;3.20;99.90;;;;;;5016868;27;117995;-61
2021/03/07 07:09:41;;;;;;;7.63;5.63;;;3.20;99.90;;;;;;5017186;27;118779;-62
2021/03/07 07:12:09;;;;;;;7.87;5.33;;;3.10;99.90;;;;;;5014884;27;118942;-63
2021/03/07 07:14:40;;;;;;;8.23;6.00;;;3.20;99.90;;;;;;5015395;27;118897;-61
2021/03/07 07:17:08;;;;;;;9.43;6.03;;;3.20;99.90;;;;;;5016381;27;118339;-62
2021/03/07 07:19:35;;;;;;;8.53;6.23;;;3.20;99.90;;;;;;5017475;27;118485;-63
2021/03/07 07:22:02;;;;;;;8.23;6.13;;;3.20;99.90;;;;;;5014839;27;119252;-62
2021/03/07 07:24:28;;;;;;;9.47;6.50;;;3.30;99.90;;;;;;5015259;27;118555;-62
2021/03/07 07:26:57;;;;;;;6.27;5.00;;;3.30;99.90;;;;;;5016050;27;118280;-63
2021/03/07 07:29:24;;;;;;;9.23;6.43;;;3.30;99.90;;;;;;5017203;27;118280;-63
2021/03/07 07:31:55;;;;;;;8.00;5.37;;;3.30;99.90;;;;;;5015532;27;118701;-60
2021/03/07 07:34:29;;;;;;;7.20;5.70;;;3.40;99.90;;;;;;5016164;27;118797;-62
2021/03/07 07:37:00;;;;;;;9.30;5.50;;;3.30;99.90;;;;;;5016469;27;118276;-62
2021/03/07 07:39:30;;;;;;;9.57;5.87;;;3.40;99.90;;;;;;5017314;27;118171;-63
2021/03/07 07:41:58;;;;;;;6.83;5.50;;;3.50;99.90;;;;;;5015199;27;119602;-62
2021/03/07 07:44:32;;;;;;;8.53;5.70;;;3.40;99.90;;;;;;4997051;27;120840;-62
2021/03/07 07:47:01;;;;;;;9.00;5.57;;;3.40;99.90;;;;;;5016729;27;118608;-63
2021/03/07 07:49:41;;;;;;;6.97;6.27;;;3.40;99.90;;;;;;5016526;27;118247;-62
2021/03/07 07:52:48;;;;;;;8.10;5.97;;;3.50;99.90;;;;;;5014524;27;119592;-61
2021/03/07 07:55:18;;;;;;;7.20;5.33;;;3.60;99.90;;;;;;4995850;27;120830;-62
2021/03/07 07:57:54;;;;;;;8.67;6.30;;;3.60;99.90;;;;;;5021817;27;118095;-62
2021/03/07 08:00:47;;;;;;;8.03;5.50;;;3.60;99.90;;;;;;5019170;27;118148;-63
2021/03/07 08:03:34;;;;;;;10.53;5.60;;;3.60;99.90;;;;;;5013713;27;119799;-63
2021/03/07 08:06:01;;;;;;;6.87;5.27;;;3.70;99.90;;;;;;5015153;27;118707;-63
2021/03/07 08:08:35;;;;;;;7.27;5.80;;;3.60;99.90;;;;;;5016367;27;118250;-62
2021/03/07 08:11:03;;;;;;;10.03;6.17;;;3.80;99.90;;;;;;5016958;27;118881;-62
2021/03/07 08:13:50;;;;;;;7.83;5.77;;;3.60;99.90;;;;;;5015252;27;119654;-62
2021/03/07 08:16:37;;;;;;;9.50;5.70;;;3.70;99.90;;;;;;5007169;27;119337;-62
2021/03/07 08:19:05;;;;;;;7.93;5.70;;;3.80;99.90;;;;;;5016034;27;118298;-62
2021/03/07 08:21:55;;;;;;;7.13;5.80;;;3.70;99.90;;;;;;5015593;27;118563;-62
2021/03/07 08:24:22;;;;;;;7.87;5.23;;;3.90;99.90;;;;;;5016381;27;119149;-62
2021/03/07 08:26:59;;;;;;;6.47;5.83;;;3.80;99.90;;;;;;5018647;27;118864;-62
2021/03/07 08:29:44;;;;;;;8.00;6.07;;;4.00;99.90;;;;;;5020073;27;118058;-61
2021/03/07 08:32:37;;;;;;;6.83;5.63;;;3.90;99.90;;;;;;5019999;27;118350;-62
2021/03/07 08:35:12;;;;;;;7.63;6.00;;;4.00;99.90;;;;;;5018418;27;118892;-62
2021/03/07 08:37:38;;;;;;;5.53;4.67;;;4.00;99.90;;;;;;5018800;27;119434;-62
2021/03/07 08:40:30;;;;;;;8.00;5.20;;;4.10;99.90;;;;;;5018852;27;118522;-62
2021/03/07 08:42:58;;;;;;;8.50;5.83;;;4.10;99.90;;;;;;5019327;27;118109;-63
2021/03/07 08:45:26;;;;;;;6.50;5.30;;;4.30;99.90;;;;;;5016727;27;119112;-62
2021/03/07 08:47:58;;;;;;;6.87;6.07;;;5.00;99.90;;;;;;5017632;27;118779;-64
2021/03/07 08:50:25;;;;;;;7.93;5.40;;;4.40;99.90;;;;;;5019070;27;118340;-63
2021/03/07 08:52:52;;;;;;;7.60;5.87;;;4.30;99.90;;;;;;5019052;27;118234;-63
2021/03/07 08:55:18;;;;;;;6.70;5.63;;;4.20;99.90;;;;;;5017933;27;119146;-63
2021/03/07 08:57:47;;;;;;;7.07;5.80;;;4.30;99.90;;;;;;5018160;27;118960;-64
2021/03/07 09:00:15;;;;;;;6.83;5.43;;;4.20;99.90;;;;;;5019359;27;118160;-63
2021/03/07 09:02:43;;;;;;;7.93;5.97;;;4.30;99.90;;;;;;5020142;27;118462;-63
2021/03/07 09:05:26;;;;;;;8.73;6.53;;;4.20;99.90;;;;;;5017580;27;119400;-62
2021/03/07 09:08:00;;;;;;;7.13;5.63;;;4.30;99.90;;;;;;5018307;27;118317;-63
2021/03/07 09:10:32;;;;;;;8.03;5.97;;;4.40;99.90;;;;;;5018545;27;118182;-62
2021/03/07 09:13:07;;;;;;;9.17;5.93;;;4.40;99.90;;;;;;5018938;27;118256;-64
2021/03/07 09:15:33;;;;;;;7.60;6.10;;;4.30;99.90;;;;;;5017819;27;119272;-63
2021/03/07 09:18:00;;;;;;;10.03;5.87;;;4.40;99.90;;;;;;5018324;27;118618;-61
2021/03/07 09:20:40;;;;;;;7.13;6.07;;;5.50;99.90;;;;;;5017997;27;118814;-63
2021/03/07 09:23:06;;;;;;;8.47;6.83;;;4.50;99.90;;;;;;5019531;27;118393;-63
2021/03/07 09:25:32;;;;;;;8.00;5.93;;;4.50;99.90;;;;;;5017670;27;119634;-62
2021/03/07 09:27:59;;;;;;;9.77;6.30;;;4.50;99.90;;;;;;5016771;27;119524;-62
2021/03/07 09:30:25;;;;;;;7.53;6.00;;;4.50;99.90;;;;;;5018606;27;118446;-62
2021/03/07 09:32:52;;;;;;;7.70;6.20;;;4.60;99.90;;;;;;5018422;27;118645;-62
2021/03/07 09:35:24;;;;;;;6.80;5.20;;;4.40;99.90;;;;;;5016223;27;119196;-59
2021/03/07 09:37:55;;;;;;;7.60;5.90;;;4.40;99.90;;;;;;5016974;27;119136;-62
2021/03/07 09:40:22;;;;;;;10.60;6.90;;;4.40;99.90;;;;;;5017785;27;117978;-61
2021/03/07 09:42:54;;;;;;;8.27;6.33;;;4.40;99.90;;;;;;5017789;27;118450;-61
2021/03/07 09:45:20;;;;;;;6.93;6.03;;;3.90;99.90;;;;;;5017204;27;118714;-62
2021/03/07 09:47:47;;;;;;;9.90;6.10;;;4.30;99.90;;;;;;5016756;27;118972;-61
2021/03/07 09:50:15;;;;;;;9.60;7.37;;;4.30;99.90;;;;;;5018211;27;118362;-65
2021/03/07 09:52:42;;;;;;;7.20;6.50;;;4.30;99.90;;;;;;5018365;27;118625;-63
2021/03/07 09:55:09;;;;;;;8.97;6.87;;;4.30;99.90;;;;;;5017282;27;119107;-61
2021/03/07 09:57:37;;;;;;;9.10;6.87;;;4.50;99.90;;;;;;5016930;27;118466;-63
2021/03/07 10:00:04;;;;;;;9.07;7.50;;;4.30;99.90;;;;;;5017865;27;118472;-61
2021/03/07 10:02:39;;;;;;;8.97;7.90;;;4.20;99.90;;;;;;5014850;27;118071;-61
2021/03/07 10:05:14;;;;;;;7.77;6.47;;;4.30;99.90;;;;;;5016749;27;119302;-63
2021/03/07 10:07:40;;;;;;;10.87;6.90;;;4.40;99.90;;;;;;5016883;27;118472;-65
2021/03/07 10:10:10;;;;;;;9.60;7.07;;;4.40;99.90;;;;;;5018520;27;118055;-60
2021/03/07 10:12:45;;;;;;;8.17;6.87;;;4.50;99.90;;;;;;4998739;27;118433;-61
2021/03/07 10:15:14;;;;;;;10.13;7.57;;;4.90;99.90;;;;;;4997936;27;121441;-61
2021/03/07 10:17:42;;;;;;;7.93;6.70;;;4.50;99.90;;;;;;5015426;27;119570;-62
2021/03/07 10:20:11;;;;;;;7.23;5.73;;;4.50;99.90;;;;;;5017699;27;118201;-61
2021/03/07 10:22:39;;;;;;;7.20;5.80;;;4.70;99.90;;;;;;5016915;27;118341;-63
2021/03/07 10:25:08;;;;;;;8.40;6.33;;;4.70;99.90;;;;;;4996524;27;119991;-63
2021/03/07 10:27:34;;;;;;;6.97;5.60;;;4.60;99.90;;;;;;5015979;27;120143;-63
2021/03/07 10:30:01;;;;;;;6.93;5.97;;;4.60;99.90;;;;;;5017457;27;118406;-63
2021/03/07 10:32:27;;;;;;;7.27;5.57;;;4.60;99.90;;;;;;5017344;27;118279;-63
2021/03/07 10:34:54;;;;;;;8.73;6.67;;;4.60;99.90;;;;;;5016710;27;118741;-62
2021/03/07 10:37:44;;;;;;;11.17;6.43;;;4.60;99.90;;;;;;5016470;27;118645;-63
2021/03/07 10:40:12;;;;;;;8.53;6.07;;;4.70;99.90;;;;;;5017205;27;118343;-63
2021/03/07 10:42:40;;;;;;;8.67;6.93;;;4.60;99.90;;;;;;5017836;27;118120;-61
2021/03/07 10:45:18;;;;;;;8.83;5.97;;;4.60;99.90;;;;;;4997244;27;119574;-62
2021/03/07 10:47:57;;;;;;;8.73;6.47;;;4.60;99.90;;;;;;5015374;27;118837;-62
2021/03/07 10:50:23;;;;;;;18.20;6.57;;;4.70;99.90;;;;;;5016468;27;118306;-62
2021/03/07 10:52:50;;;;;;;8.63;6.47;;;4.70;99.90;;;;;;5017412;27;119017;-64
2021/03/07 10:55:23;;;;;;;6.57;5.67;;;4.70;99.90;;;;;;5016685;27;118385;-62
2021/03/07 10:57:49;;;;;;;8.73;6.53;;;4.80;99.50;;;;;;5016079;27;118775;-61
2021/03/07 11:00:17;;;;;;;6.23;4.77;;;4.80;99.90;;;;;;5017278;27;118046;-62
2021/03/07 11:02:44;;;;;;;6.67;5.53;;;4.80;99.60;;;;;;5017040;27;118332;-63
2021/03/07 11:05:14;;;;;;;7.97;6.07;;;4.80;99.20;;;;;;5016076;27;119444;-63
2021/03/07 11:07:40;;;;;;;9.67;6.40;;;4.90;99.40;;;;;;5016832;27;118380;-62
2021/03/07 11:10:09;;;;;;;6.53;5.23;;;4.90;98.80;;;;;;5017518;27;118663;-62
2021/03/07 11:12:36;;;;;;;5.77;4.63;;;5.00;98.10;;;;;;5016677;27;118812;-63
2021/03/07 11:15:04;;;;;;;5.40;4.87;;;5.00;96.90;;;;;;5015457;27;118913;-63
2021/03/07 11:17:30;;;;;;;4.87;4.00;;;5.00;95.70;;;;;;5015834;27;119552;-63
2021/03/07 11:19:56;;;;;;;4.53;3.83;;;5.00;94.80;;;;;;5017744;27;118216;-61
2021/03/07 11:22:23;;;;;;;6.20;4.10;;;4.90;93.30;;;;;;5017310;27;118350;-63
2021/03/07 11:24:49;;;;;;;4.00;3.40;;;4.90;93.10;;;;;;5015917;27;118728;-62
2021/03/07 11:27:15;;;;;;;7.37;4.33;;;4.90;92.70;;;;;;5016825;27;118867;-62
2021/03/07 11:29:43;;;;;;;5.30;4.07;;;4.60;93.00;;;;;;5017635;27;118128;-63
2021/03/07 11:32:11;;;;;;;5.00;4.13;;;4.60;93.00;;;;;;5017012;27;118310;-62
2021/03/07 11:34:37;;;;;;;4.20;3.60;;;4.80;93.30;;;;;;5016421;27;119257;-63
2021/03/07 11:37:04;;;;;;;7.33;4.00;;;4.80;92.50;;;;;;5014870;27;118866;-62
2021/03/07 11:39:30;;;;;;;4.13;3.70;;;4.80;92.40;;;;;;5016505;27;118352;-63
2021/03/07 11:41:57;;;;;;;4.53;4.03;;;4.80;92.70;;;;;;5016771;27;118609;-63
2021/03/07 11:44:25;;;;;;;4.13;3.70;;;4.80;93.00;;;;;;5015102;27;119655;-62
2021/03/07 11:46:53;;;;;;;5.67;4.30;;;4.70;92.70;;;;;;5015149;27;119807;-62
2021/03/07 11:49:20;;;;;;;4.00;3.70;;;4.90;92.30;;;;;;5014708;27;118374;-63
2021/03/07 11:51:46;;;;;;;4.37;3.97;;;5.00;92.40;;;;;;4106837;27;10000720;-63
2021/03/07 11:54:12;;;;;;;4.70;3.90;;;5.10;91.40;;;;;;4993683;27;118167;-62
2021/03/07 11:56:39;;;;;;;5.13;4.60;;;5.10;91.10;;;;;;4995606;27;118780;-62
2021/03/07 11:59:05;;;;;;;5.57;4.93;;;5.00;91.50;;;;;;4995605;27;119106;-62
2021/03/07 12:01:32;;;;;;;5.70;4.50;;;5.10;91.50;;;;;;4978044;27;120930;-62
2021/03/07 12:03:59;;;;;;;5.50;3.57;;;5.20;90.60;;;;;;4997757;27;118797;-62
2021/03/07 12:06:25;;;;;;;5.10;4.60;;;5.30;90.40;;;;;;4997965;27;118518;-63
2021/03/07 12:08:54;;;;;;;5.10;3.77;;;5.20;89.00;;;;;;4997473;27;118958;-62
2021/03/07 12:11:21;;;;;;;6.30;4.63;;;5.30;85.30;;;;;;4996963;27;119106;-62
2021/03/07 12:13:47;;;;;;;6.20;5.27;;;5.30;86.30;;;;;;4998142;27;118459;-63
2021/03/07 12:16:13;;;;;;;6.10;4.87;;;5.30;85.90;;;;;;4997688;27;118580;-62
2021/03/07 12:18:41;;;;;;;12.10;8.80;;;5.40;84.40;;;;;;4997225;27;119198;-63
2021/03/07 12:21:09;;;;;;;4.57;3.90;;;5.40;84.40;;;;;;4997106;27;118486;-62
2021/03/07 12:23:36;;;;;;;5.70;5.10;;;6.70;86.30;;;;;;4996225;27;118469;-63
2021/03/07 12:26:02;;;;;;;6.43;5.10;;;5.40;85.10;;;;;;4996906;27;118659;-63
2021/03/07 12:28:29;;;;;;;5.80;5.27;;;5.50;81.70;;;;;;4995447;27;119701;-62
2021/03/07 12:30:55;;;;;;;5.17;4.63;;;5.60;81.10;;;;;;4997101;27;118980;-63
2021/03/07 12:33:21;;;;;;;6.83;6.13;;;5.60;81.00;;;;;;4997388;27;118430;-63
2021/03/07 12:35:48;;;;;;;6.33;5.17;;;5.40;81.10;;;;;;4996868;27;118207;-62
2021/03/07 12:38:15;;;;;;;5.60;5.10;;;5.60;81.10;;;;;;4994926;27;118537;-62
2021/03/07 12:40:41;;;;;;;6.07;5.43;;;5.70;81.70;;;;;;4990554;27;118654;-62
2021/03/07 12:43:07;;;;;;;6.40;4.90;;;5.60;80.70;;;;;;4997271;27;118584;-63
2021/03/07 12:45:33;;;;;;;6.37;5.37;;;5.70;80.80;;;;;;4997854;27;118396;-63
2021/03/07 12:48:00;;;;;;;5.83;5.20;;;5.60;79.80;;;;;;4995651;27;119711;-63
2021/03/07 12:50:26;;;;;;;5.17;4.23;;;6.90;80.90;;;;;;4996000;27;118920;-63